sensor_id;sensor_type;location;lat;lon;timestamp;pressure;altitude;pressure_sealevel;temperature;humidity
54248;BME280;40161;39.768;2.722;2023-03-14T00:00:31;100766.66;;;20.14;47.17
54248;BME280;40161;39.768;2.722;2023-03-14T00:02:57;100764.66;;;19.95;48.00
54248;BME280;40161;39.768;2.722;2023-03-14T00:05:22;100764.19;;;19.80;49.36
54248;BME280;40161;39.768;2.722;2023-03-14T00:07:48;100739.81;;;19.64;48.83
54248;BME280;40161;39.768;2.722;2023-03-14T00:10:14;100775.56;;;19.85;48.95
54248;BME280;40161;39.768;2.722;2023-03-14T00:12:41;100773.69;;;19.82;49.65
54248;BME280;40161;39.768;2.722;2023-03-14T00:15:07;100782.31;;;19.88;49.41
54248;BME280;40161;39.768;2.722;2023-03-14T00:17:34;100781.97;;;19.86;49.81
54248;BME280;40161;39.768;2.722;2023-03-14T00:20:00;100786.78;;;19.82;49.71
54248;BME280;40161;39.768;2.722;2023-03-14T00:22:31;100802.16;;;19.70;50.61
54248;BME280;40161;39.768;2.722;2023-03-14T00:24:57;100815.22;;;19.73;50.52
54248;BME280;40161;39.768;2.722;2023-03-14T00:27:22;100807.09;;;19.59;51.35
54248;BME280;40161;39.768;2.722;2023-03-14T00:29:48;100814.63;;;19.38;52.01
54248;BME280;40161;39.768;2.722;2023-03-14T00:32:13;100841.84;;;19.27;52.74
54248;BME280;40161;39.768;2.722;2023-03-14T00:34:39;100839.78;;;19.08;52.74
54248;BME280;40161;39.768;2.722;2023-03-14T00:37:05;100837.84;;;19.05;53.19
54248;BME280;40161;39.768;2.722;2023-03-14T00:39:31;100803.06;;;18.93;52.90
54248;BME280;40161;39.768;2.722;2023-03-14T00:41:56;100831.16;;;18.98;53.17
54248;BME280;40161;39.768;2.722;2023-03-14T00:44:22;100846.75;;;18.92;53.71
54248;BME280;40161;39.768;2.722;2023-03-14T00:46:47;100841.41;;;18.78;54.53
54248;BME280;40161;39.768;2.722;2023-03-14T00:49:13;100867.81;;;18.93;54.47
54248;BME280;40161;39.768;2.722;2023-03-14T00:51:39;100851.75;;;18.78;54.40
54248;BME280;40161;39.768;2.722;2023-03-14T00:54:04;100866.91;;;18.73;54.30
54248;BME280;40161;39.768;2.722;2023-03-14T00:56:30;100839.50;;;18.41;55.28
54248;BME280;40161;39.768;2.722;2023-03-14T00:58:56;100851.72;;;18.47;56.00
54248;BME280;40161;39.768;2.722;2023-03-14T01:01:22;100871.41;;;17.95;57.53
54248;BME280;40161;39.768;2.722;2023-03-14T01:03:51;100842.50;;;17.89;57.32
54248;BME280;40161;39.768;2.722;2023-03-14T01:06:21;100860.16;;;18.06;56.87
54248;BME280;40161;39.768;2.722;2023-03-14T01:08:47;100885.91;;;18.10;57.44
54248;BME280;40161;39.768;2.722;2023-03-14T01:11:28;100874.88;;;18.02;57.91
54248;BME280;40161;39.768;2.722;2023-03-14T01:13:55;100837.13;;;17.71;58.29
54248;BME280;40161;39.768;2.722;2023-03-14T01:16:22;100854.91;;;17.81;58.05
54248;BME280;40161;39.768;2.722;2023-03-14T01:18:48;100899.84;;;17.61;59.26
54248;BME280;40161;39.768;2.722;2023-03-14T01:21:17;100879.03;;;17.39;61.01
54248;BME280;40161;39.768;2.722;2023-03-14T01:23:44;100881.09;;;17.31;60.65
54248;BME280;40161;39.768;2.722;2023-03-14T01:26:16;100862.75;;;16.89;61.01
54248;BME280;40161;39.768;2.722;2023-03-14T01:28:41;100903.41;;;17.09;60.97
54248;BME280;40161;39.768;2.722;2023-03-14T01:31:09;100918.06;;;17.14;61.67
54248;BME280;40161;39.768;2.722;2023-03-14T01:33:35;100888.38;;;17.11;60.99
54248;BME280;40161;39.768;2.722;2023-03-14T01:36:01;100923.56;;;17.21;60.71
54248;BME280;40161;39.768;2.722;2023-03-14T01:38:32;100921.72;;;17.00;62.26
54248;BME280;40161;39.768;2.722;2023-03-14T01:40:59;100893.75;;;16.69;62.56
54248;BME280;40161;39.768;2.722;2023-03-14T01:43:25;100936.53;;;17.35;59.72
54248;BME280;40161;39.768;2.722;2023-03-14T01:46:25;100940.16;;;17.28;52.51
54248;BME280;40161;39.768;2.722;2023-03-14T01:48:59;100933.78;;;17.35;52.46
54248;BME280;40161;39.768;2.722;2023-03-14T01:56:38;100970.00;;;17.65;52.05
54248;BME280;40161;39.768;2.722;2023-03-14T01:59:07;100941.72;;;17.29;54.21
54248;BME280;40161;39.768;2.722;2023-03-14T02:01:34;100977.72;;;17.36;55.00
54248;BME280;40161;39.768;2.722;2023-03-14T02:04:03;100940.19;;;17.21;53.14
54248;BME280;40161;39.768;2.722;2023-03-14T02:06:44;100965.34;;;17.48;51.38
54248;BME280;40161;39.768;2.722;2023-03-14T02:09:11;100964.94;;;17.53;50.44
54248;BME280;40161;39.768;2.722;2023-03-14T02:11:37;100967.31;;;17.51;48.26
54248;BME280;40161;39.768;2.722;2023-03-14T02:14:04;100942.94;;;17.28;46.65
54248;BME280;40161;39.768;2.722;2023-03-14T02:16:30;100980.44;;;17.47;46.73
54248;BME280;40161;39.768;2.722;2023-03-14T02:18:56;100937.88;;;17.12;46.11
54248;BME280;40161;39.768;2.722;2023-03-14T02:27:00;100973.00;;;17.33;45.53
54248;BME280;40161;39.768;2.722;2023-03-14T02:29:26;100946.13;;;17.23;45.60
54248;BME280;40161;39.768;2.722;2023-03-14T02:31:53;100988.00;;;17.39;45.36
54248;BME280;40161;39.768;2.722;2023-03-14T02:34:19;100991.63;;;17.32;46.38
54248;BME280;40161;39.768;2.722;2023-03-14T02:36:44;100982.13;;;17.30;46.90
54248;BME280;40161;39.768;2.722;2023-03-14T02:39:20;100977.31;;;17.41;46.15
54248;BME280;40161;39.768;2.722;2023-03-14T02:41:47;100951.34;;;17.14;46.14
54248;BME280;40161;39.768;2.722;2023-03-14T02:44:14;100952.94;;;17.07;46.11
54248;BME280;40161;39.768;2.722;2023-03-14T02:46:40;100982.19;;;17.19;46.30
54248;BME280;40161;39.768;2.722;2023-03-14T02:49:08;100982.22;;;17.16;46.44
54248;BME280;40161;39.768;2.722;2023-03-14T02:51:35;100988.22;;;17.07;46.84
54248;BME280;40161;39.768;2.722;2023-03-14T02:54:02;100981.53;;;16.97;48.34
54248;BME280;40161;39.768;2.722;2023-03-14T02:56:27;100980.31;;;16.98;47.34
54248;BME280;40161;39.768;2.722;2023-03-14T02:58:53;100960.16;;;16.94;47.21
54248;BME280;40161;39.768;2.722;2023-03-14T03:01:19;100973.97;;;17.01;47.66
54248;BME280;40161;39.768;2.722;2023-03-14T03:03:44;100961.00;;;16.84;48.68
54248;BME280;40161;39.768;2.722;2023-03-14T03:06:10;100934.88;;;16.81;48.32
54248;BME280;40161;39.768;2.722;2023-03-14T03:08:36;100965.63;;;17.08;48.28
54248;BME280;40161;39.768;2.722;2023-03-14T03:11:01;100964.50;;;16.92;49.55
54248;BME280;40161;39.768;2.722;2023-03-14T03:13:27;100968.53;;;16.80;49.05
54248;BME280;40161;39.768;2.722;2023-03-14T03:15:53;100961.44;;;16.61;49.56
54248;BME280;40161;39.768;2.722;2023-03-14T03:18:18;100920.78;;;16.33;50.25
54248;BME280;40161;39.768;2.722;2023-03-14T03:20:44;100927.50;;;16.39;50.45
54248;BME280;40161;39.768;2.722;2023-03-14T03:23:11;100953.16;;;16.54;51.00
54248;BME280;40161;39.768;2.722;2023-03-14T03:25:36;100993.09;;;16.64;51.14
54248;BME280;40161;39.768;2.722;2023-03-14T03:28:02;100991.91;;;16.61;51.21
54248;BME280;40161;39.768;2.722;2023-03-14T03:30:33;100985.66;;;16.39;51.84
54248;BME280;40161;39.768;2.722;2023-03-14T03:32:58;100989.63;;;16.38;52.09
54248;BME280;40161;39.768;2.722;2023-03-14T03:35:24;101009.00;;;16.45;51.96
54248;BME280;40161;39.768;2.722;2023-03-14T03:37:49;101011.41;;;16.22;53.16
54248;BME280;40161;39.768;2.722;2023-03-14T03:40:15;101013.41;;;16.14;53.20
54248;BME280;40161;39.768;2.722;2023-03-14T03:42:41;101026.06;;;15.97;54.41
54248;BME280;40161;39.768;2.722;2023-03-14T03:45:07;101013.81;;;15.91;54.87
54248;BME280;40161;39.768;2.722;2023-03-14T03:47:32;101033.94;;;16.13;55.04
54248;BME280;40161;39.768;2.722;2023-03-14T03:49:58;101033.94;;;16.20;55.30
54248;BME280;40161;39.768;2.722;2023-03-14T03:52:23;101043.44;;;16.23;55.29
54248;BME280;40161;39.768;2.722;2023-03-14T03:54:49;101041.06;;;16.03;57.06
54248;BME280;40161;39.768;2.722;2023-03-14T03:57:14;101030.78;;;15.72;57.54
54248;BME280;40161;39.768;2.722;2023-03-14T03:59:40;100976.94;;;15.23;60.00
54248;BME280;40161;39.768;2.722;2023-03-14T04:02:06;101041.78;;;15.50;59.18
54248;BME280;40161;39.768;2.722;2023-03-14T04:04:32;101001.81;;;15.23;59.40
54248;BME280;40161;39.768;2.722;2023-03-14T04:06:57;101042.25;;;15.66;59.19
54248;BME280;40161;39.768;2.722;2023-03-14T04:09:23;101023.97;;;15.44;58.96
54248;BME280;40161;39.768;2.722;2023-03-14T04:11:48;101014.88;;;15.36;59.80
54248;BME280;40161;39.768;2.722;2023-03-14T04:14:14;100965.84;;;15.12;60.15
54248;BME280;40161;39.768;2.722;2023-03-14T04:16:40;101033.50;;;15.50;59.46
54248;BME280;40161;39.768;2.722;2023-03-14T04:19:05;101038.25;;;15.60;58.72
54248;BME280;40161;39.768;2.722;2023-03-14T04:21:31;101049.28;;;15.39;59.25
54248;BME280;40161;39.768;2.722;2023-03-14T04:23:56;101069.00;;;15.34;58.80
54248;BME280;40161;39.768;2.722;2023-03-14T04:26:22;101076.78;;;15.07;60.32
54248;BME280;40161;39.768;2.722;2023-03-14T04:28:47;101065.31;;;15.01;60.70
54248;BME280;40161;39.768;2.722;2023-03-14T04:31:18;101062.50;;;14.90;60.65
54248;BME280;40161;39.768;2.722;2023-03-14T04:33:45;101080.38;;;15.07;59.92
54248;BME280;40161;39.768;2.722;2023-03-14T04:36:11;101079.53;;;15.03;59.26
54248;BME280;40161;39.768;2.722;2023-03-14T04:38:36;101071.28;;;15.14;59.02
54248;BME280;40161;39.768;2.722;2023-03-14T04:41:02;101081.59;;;15.28;59.10
54248;BME280;40161;39.768;2.722;2023-03-14T04:43:28;101048.03;;;15.18;58.04
54248;BME280;40161;39.768;2.722;2023-03-14T04:45:55;101092.34;;;15.47;57.24
54248;BME280;40161;39.768;2.722;2023-03-14T04:48:21;101065.41;;;15.23;56.40
54248;BME280;40161;39.768;2.722;2023-03-14T04:50:47;101059.44;;;15.10;55.07
54248;BME280;40161;39.768;2.722;2023-03-14T04:53:14;101072.91;;;15.18;54.77
54248;BME280;40161;39.768;2.722;2023-03-14T04:55:39;101101.84;;;15.46;54.61
54248;BME280;40161;39.768;2.722;2023-03-14T04:58:05;101112.50;;;15.48;55.42
54248;BME280;40161;39.768;2.722;2023-03-14T05:00:31;101086.00;;;15.39;56.08
54248;BME280;40161;39.768;2.722;2023-03-14T05:02:56;101067.66;;;14.92;56.34
54248;BME280;40161;39.768;2.722;2023-03-14T05:05:22;101103.16;;;14.90;57.20
54248;BME280;40161;39.768;2.722;2023-03-14T05:07:48;101101.84;;;14.66;58.16
54248;BME280;40161;39.768;2.722;2023-03-14T05:10:13;101114.50;;;14.70;57.88
54248;BME280;40161;39.768;2.722;2023-03-14T05:12:39;101057.09;;;14.46;55.97
54248;BME280;40161;39.768;2.722;2023-03-14T05:15:05;101117.41;;;14.99;56.20
54248;BME280;40161;39.768;2.722;2023-03-14T05:17:32;101111.53;;;15.04;55.61
54248;BME280;40161;39.768;2.722;2023-03-14T05:19:58;101108.75;;;14.97;55.97
54248;BME280;40161;39.768;2.722;2023-03-14T05:22:23;101136.31;;;14.90;56.51
54248;BME280;40161;39.768;2.722;2023-03-14T05:24:49;101148.38;;;14.64;58.01
54248;BME280;40161;39.768;2.722;2023-03-14T05:27:14;101156.03;;;14.85;57.90
54248;BME280;40161;39.768;2.722;2023-03-14T05:29:40;101146.94;;;14.81;57.24
54248;BME280;40161;39.768;2.722;2023-03-14T05:32:05;101103.34;;;14.56;57.60
54248;BME280;40161;39.768;2.722;2023-03-14T05:34:31;101153.72;;;14.94;57.81
54248;BME280;40161;39.768;2.722;2023-03-14T05:36:57;101148.63;;;14.48;58.17
54248;BME280;40161;39.768;2.722;2023-03-14T05:39:22;101160.38;;;14.41;58.98
54248;BME280;40161;39.768;2.722;2023-03-14T05:41:48;101174.03;;;14.64;58.15
54248;BME280;40161;39.768;2.722;2023-03-14T05:44:13;101172.44;;;14.63;57.07
54248;BME280;40161;39.768;2.722;2023-03-14T05:46:39;101169.09;;;14.43;57.57
54248;BME280;40161;39.768;2.722;2023-03-14T05:49:04;101163.09;;;13.56;61.45
54248;BME280;40161;39.768;2.722;2023-03-14T05:51:30;101169.25;;;13.80;60.76
54248;BME280;40161;39.768;2.722;2023-03-14T05:53:55;101176.66;;;14.09;58.91
54248;BME280;40161;39.768;2.722;2023-03-14T05:56:21;101185.81;;;14.17;58.99
54248;BME280;40161;39.768;2.722;2023-03-14T05:58:46;101174.69;;;14.10;58.41
54248;BME280;40161;39.768;2.722;2023-03-14T06:01:12;101118.34;;;13.36;60.98
54248;BME280;40161;39.768;2.722;2023-03-14T06:03:37;101178.84;;;13.59;62.60
54248;BME280;40161;39.768;2.722;2023-03-14T06:06:03;101184.38;;;13.93;60.96
54248;BME280;40161;39.768;2.722;2023-03-14T06:08:28;101180.00;;;13.88;61.61
54248;BME280;40161;39.768;2.722;2023-03-14T06:10:54;101175.63;;;13.84;62.35
54248;BME280;40161;39.768;2.722;2023-03-14T06:13:20;101144.09;;;13.51;62.37
54248;BME280;40161;39.768;2.722;2023-03-14T06:15:46;101185.31;;;13.70;62.47
54248;BME280;40161;39.768;2.722;2023-03-14T06:18:11;101183.72;;;13.69;61.63
54248;BME280;40161;39.768;2.722;2023-03-14T06:20:38;101183.22;;;13.60;62.14
54248;BME280;40161;39.768;2.722;2023-03-14T06:23:07;101198.47;;;13.50;62.32
54248;BME280;40161;39.768;2.722;2023-03-14T06:25:34;101181.69;;;13.33;63.57
54248;BME280;40161;39.768;2.722;2023-03-14T06:27:59;101209.97;;;13.56;63.57
54248;BME280;40161;39.768;2.722;2023-03-14T06:30:25;101201.78;;;13.63;63.04
54248;BME280;40161;39.768;2.722;2023-03-14T06:32:51;101204.16;;;13.65;63.08
54248;BME280;40161;39.768;2.722;2023-03-14T06:35:16;101182.84;;;13.62;62.42
54248;BME280;40161;39.768;2.722;2023-03-14T06:37:42;101163.13;;;13.03;64.71
54248;BME280;40161;39.768;2.722;2023-03-14T06:40:09;101195.16;;;13.11;65.59
54248;BME280;40161;39.768;2.722;2023-03-14T06:42:35;101201.72;;;13.29;65.40
54248;BME280;40161;39.768;2.722;2023-03-14T06:45:01;101200.66;;;13.11;64.79
54248;BME280;40161;39.768;2.722;2023-03-14T06:47:27;101212.63;;;13.22;65.16
54248;BME280;40161;39.768;2.722;2023-03-14T06:49:53;101223.81;;;13.33;65.01
54248;BME280;40161;39.768;2.722;2023-03-14T06:52:19;101237.38;;;13.45;64.08
54248;BME280;40161;39.768;2.722;2023-03-14T06:54:44;101236.94;;;13.17;65.15
54248;BME280;40161;39.768;2.722;2023-03-14T06:57:10;101243.69;;;13.19;65.31
54248;BME280;40161;39.768;2.722;2023-03-14T06:59:35;101241.31;;;13.44;64.85
54248;BME280;40161;39.768;2.722;2023-03-14T07:02:01;101233.09;;;13.48;64.89
54248;BME280;40161;39.768;2.722;2023-03-14T07:04:26;101180.66;;;13.18;65.43
54248;BME280;40161;39.768;2.722;2023-03-14T07:06:52;101236.69;;;13.52;65.41
54248;BME280;40161;39.768;2.722;2023-03-14T07:09:17;101230.28;;;13.44;66.29
54248;BME280;40161;39.768;2.722;2023-03-14T07:11:43;101183.63;;;13.28;65.43
54248;BME280;40161;39.768;2.722;2023-03-14T07:14:09;101238.75;;;13.28;66.56
54248;BME280;40161;39.768;2.722;2023-03-14T07:16:34;101227.38;;;13.34;67.24
54248;BME280;40161;39.768;2.722;2023-03-14T07:19:01;101236.19;;;13.43;66.59
54248;BME280;40161;39.768;2.722;2023-03-14T07:21:27;101225.94;;;13.43;66.93
54248;BME280;40161;39.768;2.722;2023-03-14T07:23:52;101246.88;;;13.48;66.42
54248;BME280;40161;39.768;2.722;2023-03-14T07:26:18;101240.97;;;13.23;67.51
54248;BME280;40161;39.768;2.722;2023-03-14T07:28:44;101263.84;;;13.50;67.57
54248;BME280;40161;39.768;2.722;2023-03-14T07:31:09;101259.22;;;13.31;67.58
54248;BME280;40161;39.768;2.722;2023-03-14T07:33:35;101261.06;;;13.23;69.27
54248;BME280;40161;39.768;2.722;2023-03-14T07:36:01;101227.59;;;13.21;68.60
54248;BME280;40161;39.768;2.722;2023-03-14T07:38:27;101236.06;;;13.36;67.93
54248;BME280;40161;39.768;2.722;2023-03-14T07:41:03;101240.03;;;13.38;67.43
54248;BME280;40161;39.768;2.722;2023-03-14T07:43:30;101241.41;;;13.51;66.86
54248;BME280;40161;39.768;2.722;2023-03-14T07:45:55;101292.13;;;13.73;66.31
54248;BME280;40161;39.768;2.722;2023-03-14T07:48:21;101292.69;;;13.56;66.85
54248;BME280;40161;39.768;2.722;2023-03-14T07:50:51;101252.06;;;13.53;67.99
54248;BME280;40161;39.768;2.722;2023-03-14T07:53:17;101281.56;;;13.79;66.92
54248;BME280;40161;39.768;2.722;2023-03-14T07:55:44;101248.69;;;13.37;66.74
54248;BME280;40161;39.768;2.722;2023-03-14T07:58:09;101240.50;;;13.17;68.05
54248;BME280;40161;39.768;2.722;2023-03-14T08:00:35;101263.31;;;13.41;67.84
54248;BME280;40161;39.768;2.722;2023-03-14T08:03:00;101290.03;;;13.63;66.54
54248;BME280;40161;39.768;2.722;2023-03-14T08:05:26;101289.88;;;13.83;65.92
54248;BME280;40161;39.768;2.722;2023-03-14T08:07:52;101298.44;;;14.04;63.73
54248;BME280;40161;39.768;2.722;2023-03-14T08:10:17;101284.81;;;14.18;62.71
54248;BME280;40161;39.768;2.722;2023-03-14T08:12:58;101256.00;;;14.16;59.83
54248;BME280;40161;39.768;2.722;2023-03-14T08:15:25;101310.88;;;14.58;59.15
54248;BME280;40161;39.768;2.722;2023-03-14T08:17:51;101310.16;;;14.65;59.36
54248;BME280;40161;39.768;2.722;2023-03-14T08:20:18;101293.66;;;14.72;58.44
54248;BME280;40161;39.768;2.722;2023-03-14T08:22:44;101315.63;;;14.99;57.79
54248;BME280;40161;39.768;2.722;2023-03-14T08:25:10;101340.97;;;15.08;56.64
54248;BME280;40161;39.768;2.722;2023-03-14T08:27:36;101337.50;;;15.18;55.75
54248;BME280;40161;39.768;2.722;2023-03-14T08:30:04;101335.94;;;15.20;54.15
54248;BME280;40161;39.768;2.722;2023-03-14T08:32:30;101355.88;;;15.48;53.13
54248;BME280;40161;39.768;2.722;2023-03-14T08:34:56;101350.78;;;15.50;52.98
54248;BME280;40161;39.768;2.722;2023-03-14T08:37:21;101308.41;;;15.35;53.32
54248;BME280;40161;39.768;2.722;2023-03-14T08:39:47;101343.34;;;15.64;51.89
54248;BME280;40161;39.768;2.722;2023-03-14T08:42:12;101353.78;;;15.82;51.54
54248;BME280;40161;39.768;2.722;2023-03-14T08:44:38;101330.50;;;15.86;48.77
54248;BME280;40161;39.768;2.722;2023-03-14T08:47:04;101342.41;;;15.98;49.67
54248;BME280;40161;39.768;2.722;2023-03-14T08:49:31;101351.97;;;16.11;48.20
54248;BME280;40161;39.768;2.722;2023-03-14T08:51:57;101352.78;;;16.19;46.31
54248;BME280;40161;39.768;2.722;2023-03-14T08:54:24;101337.75;;;16.20;47.57
54248;BME280;40161;39.768;2.722;2023-03-14T08:56:50;101383.34;;;16.47;47.57
54248;BME280;40161;39.768;2.722;2023-03-14T08:59:16;101388.09;;;16.50;46.17
54248;BME280;40161;39.768;2.722;2023-03-14T09:01:43;101392.53;;;16.62;46.15
54248;BME280;40161;39.768;2.722;2023-03-14T09:04:08;101407.94;;;16.59;45.28
54248;BME280;40161;39.768;2.722;2023-03-14T09:06:34;101416.66;;;16.65;45.92
54248;BME280;40161;39.768;2.722;2023-03-14T09:09:01;101402.38;;;16.52;44.69
54248;BME280;40161;39.768;2.722;2023-03-14T09:11:27;101432.13;;;16.73;44.79
54248;BME280;40161;39.768;2.722;2023-03-14T09:13:52;101386.53;;;16.53;43.86
54248;BME280;40161;39.768;2.722;2023-03-14T09:16:18;101417.91;;;16.82;43.04
54248;BME280;40161;39.768;2.722;2023-03-14T09:18:43;101398.50;;;16.78;41.83
54248;BME280;40161;39.768;2.722;2023-03-14T09:21:09;101397.25;;;16.69;42.35
54248;BME280;40161;39.768;2.722;2023-03-14T09:23:34;101421.09;;;16.80;42.16
54248;BME280;40161;39.768;2.722;2023-03-14T09:26:00;101433.41;;;16.90;43.67
54248;BME280;40161;39.768;2.722;2023-03-14T09:28:27;101428.66;;;16.91;43.06
54248;BME280;40161;39.768;2.722;2023-03-14T09:30:53;101445.28;;;16.94;42.92
54248;BME280;40161;39.768;2.722;2023-03-14T09:33:19;101449.28;;;17.00;41.84
54248;BME280;40161;39.768;2.722;2023-03-14T09:35:45;101439.75;;;16.98;41.62
54248;BME280;40161;39.768;2.722;2023-03-14T09:38:11;101457.16;;;16.95;41.32
54248;BME280;40161;39.768;2.722;2023-03-14T09:40:37;101426.63;;;16.77;41.64
54248;BME280;40161;39.768;2.722;2023-03-14T09:43:04;101468.28;;;17.05;42.02
54248;BME280;40161;39.768;2.722;2023-03-14T09:45:36;101476.63;;;17.13;41.63
54248;BME280;40161;39.768;2.722;2023-03-14T09:48:04;101469.91;;;17.21;42.49
54248;BME280;40161;39.768;2.722;2023-03-14T09:50:36;101421.91;;;16.92;40.89
54248;BME280;40161;39.768;2.722;2023-03-14T09:53:07;101463.19;;;17.22;41.13
54248;BME280;40161;39.768;2.722;2023-03-14T09:55:34;101468.31;;;17.23;40.61
54248;BME280;40161;39.768;2.722;2023-03-14T09:58:04;101482.59;;;17.29;40.26
54248;BME280;40161;39.768;2.722;2023-03-14T10:00:35;101476.63;;;17.20;40.56
54248;BME280;40161;39.768;2.722;2023-03-14T10:05:39;101484.16;;;17.26;39.16
54248;BME280;40161;39.768;2.722;2023-03-14T10:08:05;101485.78;;;17.35;39.91
54248;BME280;40161;39.768;2.722;2023-03-14T10:10:31;101497.69;;;17.42;40.26
54248;BME280;40161;39.768;2.722;2023-03-14T10:13:05;101480.25;;;17.35;39.61
54248;BME280;40161;39.768;2.722;2023-03-14T10:15:38;101499.66;;;17.35;40.36
54248;BME280;40161;39.768;2.722;2023-03-14T10:18:10;101477.47;;;17.35;41.15
54248;BME280;40161;39.768;2.722;2023-03-14T10:20:41;101508.78;;;17.56;40.92
54248;BME280;40161;39.768;2.722;2023-03-14T10:26:13;101488.59;;;17.60;41.24
54248;BME280;40161;39.768;2.722;2023-03-14T10:28:53;101446.53;;;17.36;41.55
54248;BME280;40161;39.768;2.722;2023-03-14T10:31:25;101444.56;;;17.33;40.54
54248;BME280;40161;39.768;2.722;2023-03-14T10:34:02;101434.66;;;17.39;41.47
54248;BME280;40161;39.768;2.722;2023-03-14T10:36:30;101467.56;;;17.59;42.35
54248;BME280;40161;39.768;2.722;2023-03-14T10:42:39;101444.97;;;17.71;42.27
54248;BME280;40161;39.768;2.722;2023-03-14T10:45:31;101433.47;;;17.54;41.63
54248;BME280;40161;39.768;2.722;2023-03-14T10:48:05;101433.88;;;17.53;43.50
54248;BME280;40161;39.768;2.722;2023-03-14T10:50:32;101429.50;;;17.63;43.56
54248;BME280;40161;39.768;2.722;2023-03-14T10:53:02;101388.69;;;17.45;43.16
54248;BME280;40161;39.768;2.722;2023-03-14T10:55:41;101392.63;;;17.51;44.20
54248;BME280;40161;39.768;2.722;2023-03-14T10:58:27;101433.06;;;17.67;44.42
54248;BME280;40161;39.768;2.722;2023-03-14T11:01:08;101445.75;;;17.71;44.74
54248;BME280;40161;39.768;2.722;2023-03-14T11:03:48;101439.81;;;17.73;44.92
54248;BME280;40161;39.768;2.722;2023-03-14T11:06:43;101450.16;;;17.79;45.66
54248;BME280;40161;39.768;2.722;2023-03-14T11:09:22;101455.28;;;17.77;44.81
54248;BME280;40161;39.768;2.722;2023-03-14T11:11:50;101444.97;;;17.71;43.65
54248;BME280;40161;39.768;2.722;2023-03-14T11:14:40;101465.19;;;17.89;39.75
54248;BME280;40161;39.768;2.722;2023-03-14T11:31:01;101460.81;;;17.92;38.75
54248;BME280;40161;39.768;2.722;2023-03-14T11:33:38;101450.16;;;17.83;39.81
54248;BME280;40161;39.768;2.722;2023-03-14T11:36:08;101428.72;;;17.73;39.09
54248;BME280;40161;39.768;2.722;2023-03-14T11:38:38;101444.56;;;17.97;39.70
54248;BME280;40161;39.768;2.722;2023-03-14T11:41:13;101433.84;;;17.99;39.20
54248;BME280;40161;39.768;2.722;2023-03-14T11:43:41;101384.28;;;17.73;39.44
54248;BME280;40161;39.768;2.722;2023-03-14T11:46:17;101352.59;;;17.56;40.09
54248;BME280;40161;39.768;2.722;2023-03-14T11:51:36;101351.78;;;17.70;39.38
54248;BME280;40161;39.768;2.722;2023-03-14T11:57:03;101391.84;;;17.87;40.34
54248;BME280;40161;39.768;2.722;2023-03-14T12:10:39;101329.94;;;17.72;41.21
54248;BME280;40161;39.768;2.722;2023-03-14T12:13:10;101362.47;;;17.89;41.29
54248;BME280;40161;39.768;2.722;2023-03-14T12:15:57;101352.53;;;17.99;41.97
54248;BME280;40161;39.768;2.722;2023-03-14T12:18:31;101338.28;;;17.86;41.54
54248;BME280;40161;39.768;2.722;2023-03-14T12:21:01;101306.59;;;17.62;42.07
54248;BME280;40161;39.768;2.722;2023-03-14T12:23:36;101314.91;;;17.84;42.66
54248;BME280;40161;39.768;2.722;2023-03-14T12:28:39;101355.72;;;17.90;42.40
54248;BME280;40161;39.768;2.722;2023-03-14T12:42:13;101313.69;;;17.88;44.11
54248;BME280;40161;39.768;2.722;2023-03-14T12:44:44;101302.97;;;17.90;44.43
54248;BME280;40161;39.768;2.722;2023-03-14T12:49:41;101311.66;;;17.96;41.67
54248;BME280;40161;39.768;2.722;2023-03-14T12:52:15;101326.38;;;17.89;42.24
54248;BME280;40161;39.768;2.722;2023-03-14T12:57:50;101320.78;;;18.07;43.54
54248;BME280;40161;39.768;2.722;2023-03-14T13:00:20;101310.81;;;18.10;42.69
54248;BME280;40161;39.768;2.722;2023-03-14T13:02:47;101305.66;;;18.15;42.06
54248;BME280;40161;39.768;2.722;2023-03-14T13:05:21;101289.00;;;18.08;43.02
54248;BME280;40161;39.768;2.722;2023-03-14T13:10:22;101261.66;;;18.03;41.91
54248;BME280;40161;39.768;2.722;2023-03-14T13:12:56;101241.81;;;18.05;42.07
54248;BME280;40161;39.768;2.722;2023-03-14T13:15:44;101286.88;;;18.34;41.80
54248;BME280;40161;39.768;2.722;2023-03-14T13:18:15;101275.38;;;18.39;43.43
54248;BME280;40161;39.768;2.722;2023-03-14T13:21:20;101284.44;;;18.46;42.15
54248;BME280;40161;39.768;2.722;2023-03-14T13:23:59;101285.19;;;18.50;42.15
54248;BME280;40161;39.768;2.722;2023-03-14T13:26:42;101277.66;;;18.51;41.25
54248;BME280;40161;39.768;2.722;2023-03-14T13:31:46;101262.66;;;18.41;39.85
54248;BME280;40161;39.768;2.722;2023-03-14T13:34:12;101277.63;;;18.58;39.27
54248;BME280;40161;39.768;2.722;2023-03-14T13:36:38;101270.13;;;18.52;40.24
54248;BME280;40161;39.768;2.722;2023-03-14T13:39:09;101281.19;;;18.59;39.55
54248;BME280;40161;39.768;2.722;2023-03-14T13:41:38;101260.19;;;18.50;39.92
54248;BME280;40161;39.768;2.722;2023-03-14T13:44:07;101281.97;;;18.59;38.81
54248;BME280;40161;39.768;2.722;2023-03-14T13:46:34;101283.94;;;18.62;38.46
54248;BME280;40161;39.768;2.722;2023-03-14T13:49:04;101259.91;;;18.38;38.26
54248;BME280;40161;39.768;2.722;2023-03-14T13:51:31;101241.28;;;18.31;38.53
54248;BME280;40161;39.768;2.722;2023-03-14T13:54:00;101272.41;;;18.64;37.85
54248;BME280;40161;39.768;2.722;2023-03-14T13:56:28;101239.59;;;18.44;38.41
54248;BME280;40161;39.768;2.722;2023-03-14T13:58:55;101266.88;;;18.60;38.95
54248;BME280;40161;39.768;2.722;2023-03-14T14:01:26;101259.31;;;18.61;36.07
54248;BME280;40161;39.768;2.722;2023-03-14T14:03:55;101262.53;;;18.59;36.97
54248;BME280;40161;39.768;2.722;2023-03-14T14:08:53;101266.00;;;18.70;36.90
54248;BME280;40161;39.768;2.722;2023-03-14T14:11:28;101229.66;;;18.43;34.20